KFTW/FTW METAR and TAF weather

Enter ICAO airport designator
Station Type Date Time Source
KFTW METAR 2022/01/23 11:53 UTC NOAA

KFTW 231153Z 24005KT 10SM CLR 00/M07 A3028 RMK AO2 SLP256 T00001067 10022 21006 56008 $


Station Type Date Time Source
KFTW Decoded METAR 2022/01/23 11:53 UTC NOAA

FORT WORTH MEACHAM INTERNATIONAL ., TX, United States (KFTW) 32-50N 097-22W 214M
Jan 23, 2022 - 06:53 AM EST / 2022.01.23 1153 UTC
Wind: from the WSW (240 degrees) at 6 MPH (5 KT):0
Visibility: 10 mile(s):0
Sky conditions: clear
Temperature: 32.0 F (0.0 C)
Windchill: 26 F (-3 C):1
Dew Point: 19.9 F (-6.7 C)
Relative Humidity: 60%
Pressure (altimeter): 30.28 in. Hg (1025 hPa)
Pressure tendency: 0.02 inches (0.8 hPa) lower than three hours ago
ob: KFTW 231153Z 24005KT 10SM CLR 00/M07 A3028 RMK AO2 SLP256 T00001067 10022 21006 56008
cycle: 12

Station Type Date Time Source
KFTW TAF 2022/01/23 12:28 UTC NOAA

TAF KFTW 231125Z 2312/2412 26009KT P6SM FEW060
FM241100 22008KT P6SM BKN040 OVC150

Example: see airport list